Terminal Aerodrome Forecast
Issued by NWS Wichita, KS

Home | Current Version | Previous Version | Text Only | Print | Product List | Glossary On
Versions: 1 2 3 4 5 6 7 8 9 10 11 12 13 14 15 16 17 18 19 20
000
FTUS43 KICT 241700
TAFICT
TAF
KICT 241720Z 2418/2518 34019G28KT P6SM SCT025 BKN080
     FM242000 33020G30KT P6SM SCT100
     FM250100 34011KT P6SM SKC
     FM250400 VRB04KT P6SM SKC
     FM251600 20014G20KT P6SM SCT250=

USA.gov is the U.S. government's official web portal to all federal, state and local government web resources and services.